sensor_id;sensor_type;location;lat;lon;timestamp;P1;durP1;ratioP1;P2;durP2;ratioP2
76548;SDS011;65391;52.068;4.542;2023-03-13T00:02:07;15.2;;;4.4;;
76548;SDS011;65391;52.068;4.542;2023-03-13T00:04:32;15.2;;;4.4;;
76548;SDS011;65391;52.068;4.542;2023-03-13T00:06:57;14.2;;;3.7;;
76548;SDS011;65391;52.068;4.542;2023-03-13T00:09:22;14.2;;;3.7;;
76548;SDS011;65391;52.068;4.542;2023-03-13T00:11:47;14.2;;;3.7;;
76548;SDS011;65391;52.068;4.542;2023-03-13T00:14:12;14.2;;;3.7;;
76548;SDS011;65391;52.068;4.542;2023-03-13T00:16:37;10.8;;;2.8;;
76548;SDS011;65391;52.068;4.542;2023-03-13T00:19:03;10.8;;;2.8;;
76548;SDS011;65391;52.068;4.542;2023-03-13T00:21:29;10.8;;;2.8;;
76548;SDS011;65391;52.068;4.542;2023-03-13T00:23:52;10.8;;;2.8;;
76548;SDS011;65391;52.068;4.542;2023-03-13T00:26:18;12.9;;;3.6;;
76548;SDS011;65391;52.068;4.542;2023-03-13T00:28:42;12.9;;;3.6;;
76548;SDS011;65391;52.068;4.542;2023-03-13T00:31:08;12.9;;;3.6;;
76548;SDS011;65391;52.068;4.542;2023-03-13T00:33:32;12.9;;;3.6;;
76548;SDS011;65391;52.068;4.542;2023-03-13T00:35:58;12.9;;;3.6;;
76548;SDS011;65391;52.068;4.542;2023-03-13T00:38:23;7.3;;;2.8;;
76548;SDS011;65391;52.068;4.542;2023-03-13T00:40:47;7.3;;;2.8;;
76548;SDS011;65391;52.068;4.542;2023-03-13T00:43:12;7.3;;;2.8;;
76548;SDS011;65391;52.068;4.542;2023-03-13T00:45:37;7.3;;;2.8;;
76548;SDS011;65391;52.068;4.542;2023-03-13T00:48:02;10.9;;;3.5;;
76548;SDS011;65391;52.068;4.542;2023-03-13T00:50:27;10.9;;;3.5;;
76548;SDS011;65391;52.068;4.542;2023-03-13T00:52:52;10.9;;;3.5;;
76548;SDS011;65391;52.068;4.542;2023-03-13T00:55:17;10.9;;;3.5;;
76548;SDS011;65391;52.068;4.542;2023-03-13T00:57:42;8.6;;;2.8;;
76548;SDS011;65391;52.068;4.542;2023-03-13T01:00:08;8.6;;;2.8;;
76548;SDS011;65391;52.068;4.542;2023-03-13T01:02:32;8.6;;;2.8;;
76548;SDS011;65391;52.068;4.542;2023-03-13T01:04:57;8.6;;;2.8;;
76548;SDS011;65391;52.068;4.542;2023-03-13T01:07:22;8.5;;;2.6;;
76548;SDS011;65391;52.068;4.542;2023-03-13T01:09:47;8.5;;;2.6;;
76548;SDS011;65391;52.068;4.542;2023-03-13T01:12:12;8.5;;;2.6;;
76548;SDS011;65391;52.068;4.542;2023-03-13T01:14:37;8.5;;;2.6;;
76548;SDS011;65391;52.068;4.542;2023-03-13T01:17:02;5.8;;;2.5;;
76548;SDS011;65391;52.068;4.542;2023-03-13T01:19:27;5.8;;;2.5;;
76548;SDS011;65391;52.068;4.542;2023-03-13T01:21:52;5.8;;;2.5;;
76548;SDS011;65391;52.068;4.542;2023-03-13T01:24:17;5.8;;;2.5;;
76548;SDS011;65391;52.068;4.542;2023-03-13T01:26:42;10.9;;;4.2;;
76548;SDS011;65391;52.068;4.542;2023-03-13T01:29:07;10.9;;;4.2;;
76548;SDS011;65391;52.068;4.542;2023-03-13T01:31:33;10.9;;;4.2;;
76548;SDS011;65391;52.068;4.542;2023-03-13T01:33:58;10.9;;;4.2;;
76548;SDS011;65391;52.068;4.542;2023-03-13T01:36:23;11.5;;;3.7;;
76548;SDS011;65391;52.068;4.542;2023-03-13T01:38:48;11.5;;;3.7;;
76548;SDS011;65391;52.068;4.542;2023-03-13T01:41:12;11.5;;;3.7;;
76548;SDS011;65391;52.068;4.542;2023-03-13T01:43:37;11.5;;;3.7;;
76548;SDS011;65391;52.068;4.542;2023-03-13T01:46:08;11.5;;;3.7;;
76548;SDS011;65391;52.068;4.542;2023-03-13T01:48:32;12.6;;;4.9;;
76548;SDS011;65391;52.068;4.542;2023-03-13T01:50:53;12.6;;;4.9;;
76548;SDS011;65391;52.068;4.542;2023-03-13T01:53:17;12.6;;;4.9;;
76548;SDS011;65391;52.068;4.542;2023-03-13T01:55:43;12.6;;;4.9;;
76548;SDS011;65391;52.068;4.542;2023-03-13T01:58:08;11.5;;;4.8;;
76548;SDS011;65391;52.068;4.542;2023-03-13T02:00:33;11.5;;;4.8;;
76548;SDS011;65391;52.068;4.542;2023-03-13T02:02:59;11.5;;;4.8;;
76548;SDS011;65391;52.068;4.542;2023-03-13T02:05:24;11.5;;;4.8;;
76548;SDS011;65391;52.068;4.542;2023-03-13T02:07:49;13.4;;;6;;
76548;SDS011;65391;52.068;4.542;2023-03-13T02:10:12;13.4;;;6;;
76548;SDS011;65391;52.068;4.542;2023-03-13T02:12:38;13.4;;;6;;
76548;SDS011;65391;52.068;4.542;2023-03-13T02:15:04;13.4;;;6;;
76548;SDS011;65391;52.068;4.542;2023-03-13T02:17:27;10.7;;;6.8;;
76548;SDS011;65391;52.068;4.542;2023-03-13T02:19:52;10.7;;;6.8;;
76548;SDS011;65391;52.068;4.542;2023-03-13T02:22:22;10.7;;;6.8;;
76548;SDS011;65391;52.068;4.542;2023-03-13T02:24:44;10.7;;;6.8;;
76548;SDS011;65391;52.068;4.542;2023-03-13T02:27:07;12.2;;;6.4;;
76548;SDS011;65391;52.068;4.542;2023-03-13T02:29:32;12.2;;;6.4;;
76548;SDS011;65391;52.068;4.542;2023-03-13T02:31:57;12.2;;;6.4;;
76548;SDS011;65391;52.068;4.542;2023-03-13T02:34:27;12.2;;;6.4;;
76548;SDS011;65391;52.068;4.542;2023-03-13T02:36:47;10.7;;;4.1;;
76548;SDS011;65391;52.068;4.542;2023-03-13T02:39:13;10.7;;;4.1;;
76548;SDS011;65391;52.068;4.542;2023-03-13T02:41:37;10.7;;;4.1;;
76548;SDS011;65391;52.068;4.542;2023-03-13T02:44:03;10.7;;;4.1;;
76548;SDS011;65391;52.068;4.542;2023-03-13T02:46:27;9.8;;;5.5;;
76548;SDS011;65391;52.068;4.542;2023-03-13T02:48:54;9.8;;;5.5;;
76548;SDS011;65391;52.068;4.542;2023-03-13T02:51:21;9.8;;;5.5;;
76548;SDS011;65391;52.068;4.542;2023-03-13T02:53:43;9.8;;;5.5;;
76548;SDS011;65391;52.068;4.542;2023-03-13T02:56:07;9.8;;;5.5;;
76548;SDS011;65391;52.068;4.542;2023-03-13T02:58:37;8;;;3.8;;
76548;SDS011;65391;52.068;4.542;2023-03-13T03:00:58;8;;;3.8;;
76548;SDS011;65391;52.068;4.542;2023-03-13T03:03:23;8;;;3.8;;
76548;SDS011;65391;52.068;4.542;2023-03-13T03:05:48;8;;;3.8;;
76548;SDS011;65391;52.068;4.542;2023-03-13T03:08:13;5.6;;;2.6;;
76548;SDS011;65391;52.068;4.542;2023-03-13T03:10:38;5.6;;;2.6;;
76548;SDS011;65391;52.068;4.542;2023-03-13T03:13:03;5.6;;;2.6;;
76548;SDS011;65391;52.068;4.542;2023-03-13T03:15:28;5.6;;;2.6;;
76548;SDS011;65391;52.068;4.542;2023-03-13T03:17:53;4.5;;;2.1;;
76548;SDS011;65391;52.068;4.542;2023-03-13T03:20:18;4.5;;;2.1;;
76548;SDS011;65391;52.068;4.542;2023-03-13T03:22:43;4.5;;;2.1;;
76548;SDS011;65391;52.068;4.542;2023-03-13T03:25:08;4.5;;;2.1;;
76548;SDS011;65391;52.068;4.542;2023-03-13T03:27:33;7.8;;;2.3;;
76548;SDS011;65391;52.068;4.542;2023-03-13T03:29:58;7.8;;;2.3;;
76548;SDS011;65391;52.068;4.542;2023-03-13T03:32:23;7.8;;;2.3;;
76548;SDS011;65391;52.068;4.542;2023-03-13T03:34:48;7.8;;;2.3;;
76548;SDS011;65391;52.068;4.542;2023-03-13T03:37:13;4.8;;;1.8;;
76548;SDS011;65391;52.068;4.542;2023-03-13T03:39:38;4.8;;;1.8;;
76548;SDS011;65391;52.068;4.542;2023-03-13T03:42:03;4.8;;;1.8;;
76548;SDS011;65391;52.068;4.542;2023-03-13T03:44:28;4.8;;;1.8;;
76548;SDS011;65391;52.068;4.542;2023-03-13T03:46:53;6.2;;;2.3;;
76548;SDS011;65391;52.068;4.542;2023-03-13T03:49:18;6.2;;;2.3;;
76548;SDS011;65391;52.068;4.542;2023-03-13T03:51:43;6.2;;;2.3;;
76548;SDS011;65391;52.068;4.542;2023-03-13T03:54:08;6.2;;;2.3;;
76548;SDS011;65391;52.068;4.542;2023-03-13T03:56:33;7.8;;;2.6;;
76548;SDS011;65391;52.068;4.542;2023-03-13T03:58:58;7.8;;;2.6;;
76548;SDS011;65391;52.068;4.542;2023-03-13T04:01:23;7.8;;;2.6;;
76548;SDS011;65391;52.068;4.542;2023-03-13T04:03:48;7.8;;;2.6;;
76548;SDS011;65391;52.068;4.542;2023-03-13T04:06:13;7.8;;;2.6;;
76548;SDS011;65391;52.068;4.542;2023-03-13T04:08:38;7.7;;;2.6;;
76548;SDS011;65391;52.068;4.542;2023-03-13T04:11:03;7.7;;;2.6;;
76548;SDS011;65391;52.068;4.542;2023-03-13T04:13:28;7.7;;;2.6;;
76548;SDS011;65391;52.068;4.542;2023-03-13T04:15:53;7.7;;;2.6;;
76548;SDS011;65391;52.068;4.542;2023-03-13T04:18:18;6.9;;;3;;
76548;SDS011;65391;52.068;4.542;2023-03-13T04:20:43;6.9;;;3;;
76548;SDS011;65391;52.068;4.542;2023-03-13T04:23:08;6.9;;;3;;
76548;SDS011;65391;52.068;4.542;2023-03-13T04:25:33;6.9;;;3;;
76548;SDS011;65391;52.068;4.542;2023-03-13T04:27:58;4.1;;;2.6;;
76548;SDS011;65391;52.068;4.542;2023-03-13T04:30:23;4.1;;;2.6;;
76548;SDS011;65391;52.068;4.542;2023-03-13T04:32:48;4.1;;;2.6;;
76548;SDS011;65391;52.068;4.542;2023-03-13T04:35:13;4.1;;;2.6;;
76548;SDS011;65391;52.068;4.542;2023-03-13T04:37:38;5.7;;;2.9;;
76548;SDS011;65391;52.068;4.542;2023-03-13T04:40:03;5.7;;;2.9;;
76548;SDS011;65391;52.068;4.542;2023-03-13T04:42:28;5.7;;;2.9;;
76548;SDS011;65391;52.068;4.542;2023-03-13T04:44:53;5.7;;;2.9;;
76548;SDS011;65391;52.068;4.542;2023-03-13T04:47:18;7.1;;;2.6;;
76548;SDS011;65391;52.068;4.542;2023-03-13T04:49:43;7.1;;;2.6;;
76548;SDS011;65391;52.068;4.542;2023-03-13T04:52:08;7.1;;;2.6;;
76548;SDS011;65391;52.068;4.542;2023-03-13T04:54:33;7.1;;;2.6;;
76548;SDS011;65391;52.068;4.542;2023-03-13T04:56:58;8.9;;;3;;
76548;SDS011;65391;52.068;4.542;2023-03-13T04:59:23;8.9;;;3;;
76548;SDS011;65391;52.068;4.542;2023-03-13T05:01:48;8.9;;;3;;
76548;SDS011;65391;52.068;4.542;2023-03-13T05:04:13;8.9;;;3;;
76548;SDS011;65391;52.068;4.542;2023-03-13T05:06:38;8.9;;;2.7;;
76548;SDS011;65391;52.068;4.542;2023-03-13T05:09:03;8.9;;;2.7;;
76548;SDS011;65391;52.068;4.542;2023-03-13T05:11:29;8.9;;;2.7;;
76548;SDS011;65391;52.068;4.542;2023-03-13T05:13:53;8.9;;;2.7;;
76548;SDS011;65391;52.068;4.542;2023-03-13T05:16:18;8.9;;;2.7;;
76548;SDS011;65391;52.068;4.542;2023-03-13T05:18:43;9.2;;;2.4;;
76548;SDS011;65391;52.068;4.542;2023-03-13T05:21:08;9.2;;;2.4;;
76548;SDS011;65391;52.068;4.542;2023-03-13T05:23:33;9.2;;;2.4;;
76548;SDS011;65391;52.068;4.542;2023-03-13T05:25:58;9.2;;;2.4;;
76548;SDS011;65391;52.068;4.542;2023-03-13T05:28:23;11.9;;;3;;
76548;SDS011;65391;52.068;4.542;2023-03-13T05:30:48;11.9;;;3;;
76548;SDS011;65391;52.068;4.542;2023-03-13T05:33:13;11.9;;;3;;
76548;SDS011;65391;52.068;4.542;2023-03-13T05:35:38;11.9;;;3;;
76548;SDS011;65391;52.068;4.542;2023-03-13T05:38:03;7.1;;;1.9;;
76548;SDS011;65391;52.068;4.542;2023-03-13T05:40:28;7.1;;;1.9;;
76548;SDS011;65391;52.068;4.542;2023-03-13T05:42:53;7.1;;;1.9;;
76548;SDS011;65391;52.068;4.542;2023-03-13T05:45:18;7.1;;;1.9;;
76548;SDS011;65391;52.068;4.542;2023-03-13T05:47:43;9.4;;;2.2;;
76548;SDS011;65391;52.068;4.542;2023-03-13T05:50:09;9.4;;;2.2;;
76548;SDS011;65391;52.068;4.542;2023-03-13T05:52:33;9.4;;;2.2;;
76548;SDS011;65391;52.068;4.542;2023-03-13T05:54:58;9.4;;;2.2;;
76548;SDS011;65391;52.068;4.542;2023-03-13T05:57:23;7.8;;;2.9;;
76548;SDS011;65391;52.068;4.542;2023-03-13T05:59:48;7.8;;;2.9;;
76548;SDS011;65391;52.068;4.542;2023-03-13T06:02:13;7.8;;;2.9;;
76548;SDS011;65391;52.068;4.542;2023-03-13T06:04:38;7.8;;;2.9;;
76548;SDS011;65391;52.068;4.542;2023-03-13T06:07:03;11.9;;;2.7;;
76548;SDS011;65391;52.068;4.542;2023-03-13T06:09:28;11.9;;;2.7;;
76548;SDS011;65391;52.068;4.542;2023-03-13T06:11:53;11.9;;;2.7;;
76548;SDS011;65391;52.068;4.542;2023-03-13T06:14:18;11.9;;;2.7;;
76548;SDS011;65391;52.068;4.542;2023-03-13T06:16:43;9;;;2.7;;
76548;SDS011;65391;52.068;4.542;2023-03-13T06:19:08;9;;;2.7;;
76548;SDS011;65391;52.068;4.542;2023-03-13T06:21:33;9;;;2.7;;
76548;SDS011;65391;52.068;4.542;2023-03-13T06:23:58;9;;;2.7;;
76548;SDS011;65391;52.068;4.542;2023-03-13T06:26:23;9;;;2.7;;
76548;SDS011;65391;52.068;4.542;2023-03-13T06:28:48;11.8;;;2.9;;
76548;SDS011;65391;52.068;4.542;2023-03-13T06:31:13;11.8;;;2.9;;
76548;SDS011;65391;52.068;4.542;2023-03-13T06:33:38;11.8;;;2.9;;
76548;SDS011;65391;52.068;4.542;2023-03-13T06:36:04;11.8;;;2.9;;
76548;SDS011;65391;52.068;4.542;2023-03-13T06:38:28;8.1;;;2.1;;
76548;SDS011;65391;52.068;4.542;2023-03-13T06:40:53;8.1;;;2.1;;
76548;SDS011;65391;52.068;4.542;2023-03-13T06:43:18;8.1;;;2.1;;
76548;SDS011;65391;52.068;4.542;2023-03-13T06:45:43;8.1;;;2.1;;
76548;SDS011;65391;52.068;4.542;2023-03-13T06:48:09;9.8;;;2.8;;
76548;SDS011;65391;52.068;4.542;2023-03-13T06:50:36;9.8;;;2.8;;
76548;SDS011;65391;52.068;4.542;2023-03-13T06:52:58;9.8;;;2.8;;
76548;SDS011;65391;52.068;4.542;2023-03-13T06:55:23;9.8;;;2.8;;
76548;SDS011;65391;52.068;4.542;2023-03-13T06:57:49;6.5;;;2.1;;
76548;SDS011;65391;52.068;4.542;2023-03-13T07:00:14;6.5;;;2.1;;
76548;SDS011;65391;52.068;4.542;2023-03-13T07:02:38;6.5;;;2.1;;
76548;SDS011;65391;52.068;4.542;2023-03-13T07:05:04;6.5;;;2.1;;
76548;SDS011;65391;52.068;4.542;2023-03-13T07:07:28;8.8;;;2.3;;
76548;SDS011;65391;52.068;4.542;2023-03-13T07:09:53;8.8;;;2.3;;
76548;SDS011;65391;52.068;4.542;2023-03-13T07:12:18;8.8;;;2.3;;
76548;SDS011;65391;52.068;4.542;2023-03-13T07:14:43;8.8;;;2.3;;
76548;SDS011;65391;52.068;4.542;2023-03-13T07:17:08;8.2;;;1.8;;
76548;SDS011;65391;52.068;4.542;2023-03-13T07:19:33;8.2;;;1.8;;
76548;SDS011;65391;52.068;4.542;2023-03-13T07:21:58;8.2;;;1.8;;
76548;SDS011;65391;52.068;4.542;2023-03-13T07:24:23;8.2;;;1.8;;
76548;SDS011;65391;52.068;4.542;2023-03-13T07:26:48;7.9;;;2.2;;
76548;SDS011;65391;52.068;4.542;2023-03-13T07:29:13;7.9;;;2.2;;
76548;SDS011;65391;52.068;4.542;2023-03-13T07:31:38;7.9;;;2.2;;
76548;SDS011;65391;52.068;4.542;2023-03-13T07:34:03;7.9;;;2.2;;
76548;SDS011;65391;52.068;4.542;2023-03-13T07:36:28;7.9;;;2.2;;
76548;SDS011;65391;52.068;4.542;2023-03-13T07:38:53;8;;;2.6;;
76548;SDS011;65391;52.068;4.542;2023-03-13T07:41:19;8;;;2.6;;
76548;SDS011;65391;52.068;4.542;2023-03-13T07:43:43;8;;;2.6;;
76548;SDS011;65391;52.068;4.542;2023-03-13T07:46:11;8;;;2.6;;
76548;SDS011;65391;52.068;4.542;2023-03-13T07:48:34;8.5;;;2.2;;
76548;SDS011;65391;52.068;4.542;2023-03-13T07:50:58;8.5;;;2.2;;
76548;SDS011;65391;52.068;4.542;2023-03-13T07:53:23;8.5;;;2.2;;
76548;SDS011;65391;52.068;4.542;2023-03-13T07:55:53;8.5;;;2.2;;
76548;SDS011;65391;52.068;4.542;2023-03-13T07:58:13;9.2;;;1.7;;
76548;SDS011;65391;52.068;4.542;2023-03-13T08:00:38;9.2;;;1.7;;
76548;SDS011;65391;52.068;4.542;2023-03-13T08:03:03;9.2;;;1.7;;
76548;SDS011;65391;52.068;4.542;2023-03-13T08:05:28;9.2;;;1.7;;
76548;SDS011;65391;52.068;4.542;2023-03-13T08:07:53;5.8;;;1.3;;
76548;SDS011;65391;52.068;4.542;2023-03-13T08:10:18;5.8;;;1.3;;
76548;SDS011;65391;52.068;4.542;2023-03-13T08:12:43;5.8;;;1.3;;
76548;SDS011;65391;52.068;4.542;2023-03-13T08:15:08;5.8;;;1.3;;
76548;SDS011;65391;52.068;4.542;2023-03-13T08:17:33;5.4;;;1.5;;
76548;SDS011;65391;52.068;4.542;2023-03-13T08:19:58;5.4;;;1.5;;
76548;SDS011;65391;52.068;4.542;2023-03-13T08:22:23;5.4;;;1.5;;
76548;SDS011;65391;52.068;4.542;2023-03-13T08:24:48;5.4;;;1.5;;
76548;SDS011;65391;52.068;4.542;2023-03-13T08:27:13;9;;;1.4;;
76548;SDS011;65391;52.068;4.542;2023-03-13T08:29:38;9;;;1.4;;
76548;SDS011;65391;52.068;4.542;2023-03-13T08:32:04;9;;;1.4;;
76548;SDS011;65391;52.068;4.542;2023-03-13T08:34:28;9;;;1.4;;
76548;SDS011;65391;52.068;4.542;2023-03-13T08:36:53;9.2;;;1.4;;
76548;SDS011;65391;52.068;4.542;2023-03-13T08:39:19;9.2;;;1.4;;
76548;SDS011;65391;52.068;4.542;2023-03-13T08:41:43;9.2;;;1.4;;
76548;SDS011;65391;52.068;4.542;2023-03-13T08:44:09;9.2;;;1.4;;
76548;SDS011;65391;52.068;4.542;2023-03-13T08:46:34;9.2;;;1.4;;
76548;SDS011;65391;52.068;4.542;2023-03-13T08:48:58;6.5;;;1.8;;
76548;SDS011;65391;52.068;4.542;2023-03-13T08:51:24;6.5;;;1.8;;
76548;SDS011;65391;52.068;4.542;2023-03-13T08:53:49;6.5;;;1.8;;
76548;SDS011;65391;52.068;4.542;2023-03-13T08:56:15;6.5;;;1.8;;
76548;SDS011;65391;52.068;4.542;2023-03-13T08:58:39;10.8;;;2.2;;
76548;SDS011;65391;52.068;4.542;2023-03-13T09:01:04;10.8;;;2.2;;
76548;SDS011;65391;52.068;4.542;2023-03-13T09:03:28;10.8;;;2.2;;
76548;SDS011;65391;52.068;4.542;2023-03-13T09:05:55;10.8;;;2.2;;
76548;SDS011;65391;52.068;4.542;2023-03-13T09:08:18;7.4;;;1.8;;
76548;SDS011;65391;52.068;4.542;2023-03-13T09:10:43;7.4;;;1.8;;
76548;SDS011;65391;52.068;4.542;2023-03-13T09:13:08;7.4;;;1.8;;
76548;SDS011;65391;52.068;4.542;2023-03-13T09:15:33;7.4;;;1.8;;
76548;SDS011;65391;52.068;4.542;2023-03-13T09:17:58;9.1;;;2.2;;
76548;SDS011;65391;52.068;4.542;2023-03-13T09:20:24;9.1;;;2.2;;
76548;SDS011;65391;52.068;4.542;2023-03-13T09:22:48;9.1;;;2.2;;
76548;SDS011;65391;52.068;4.542;2023-03-13T09:25:14;9.1;;;2.2;;
76548;SDS011;65391;52.068;4.542;2023-03-13T09:27:39;9.6;;;1.8;;
76548;SDS011;65391;52.068;4.542;2023-03-13T09:30:04;9.6;;;1.8;;
76548;SDS011;65391;52.068;4.542;2023-03-13T09:32:28;9.6;;;1.8;;
76548;SDS011;65391;52.068;4.542;2023-03-13T09:34:53;9.6;;;1.8;;
76548;SDS011;65391;52.068;4.542;2023-03-13T09:37:18;6.2;;;1.2;;
76548;SDS011;65391;52.068;4.542;2023-03-13T09:39:44;6.2;;;1.2;;
76548;SDS011;65391;52.068;4.542;2023-03-13T09:42:12;6.2;;;1.2;;
76548;SDS011;65391;52.068;4.542;2023-03-13T09:44:36;6.2;;;1.2;;
76548;SDS011;65391;52.068;4.542;2023-03-13T09:47:00;5.9;;;0.9;;
76548;SDS011;65391;52.068;4.542;2023-03-13T09:49:28;5.9;;;0.9;;
76548;SDS011;65391;52.068;4.542;2023-03-13T09:51:51;5.9;;;0.9;;
76548;SDS011;65391;52.068;4.542;2023-03-13T09:54:21;5.9;;;0.9;;
76548;SDS011;65391;52.068;4.542;2023-03-13T09:56:41;5.9;;;0.9;;
76548;SDS011;65391;52.068;4.542;2023-03-13T09:59:05;3.7;;;0.7;;
76548;SDS011;65391;52.068;4.542;2023-03-13T10:01:29;3.7;;;0.7;;
76548;SDS011;65391;52.068;4.542;2023-03-13T10:03:59;3.7;;;0.7;;
76548;SDS011;65391;52.068;4.542;2023-03-13T10:06:19;3.7;;;0.7;;
76548;SDS011;65391;52.068;4.542;2023-03-13T10:08:43;6.3;;;1.2;;
76548;SDS011;65391;52.068;4.542;2023-03-13T10:11:10;6.3;;;1.2;;
76548;SDS011;65391;52.068;4.542;2023-03-13T10:13:36;6.3;;;1.2;;
76548;SDS011;65391;52.068;4.542;2023-03-13T10:16:00;6.3;;;1.2;;
76548;SDS011;65391;52.068;4.542;2023-03-13T10:18:24;3.1;;;1.1;;
76548;SDS011;65391;52.068;4.542;2023-03-13T10:20:49;3.1;;;1.1;;
76548;SDS011;65391;52.068;4.542;2023-03-13T10:23:16;3.1;;;1.1;;
76548;SDS011;65391;52.068;4.542;2023-03-13T10:25:39;3.1;;;1.1;;
76548;SDS011;65391;52.068;4.542;2023-03-13T10:28:04;4.3;;;1.1;;
76548;SDS011;65391;52.068;4.542;2023-03-13T10:30:29;4.3;;;1.1;;
76548;SDS011;65391;52.068;4.542;2023-03-13T10:32:57;4.3;;;1.1;;
76548;SDS011;65391;52.068;4.542;2023-03-13T10:35:20;4.3;;;1.1;;
76548;SDS011;65391;52.068;4.542;2023-03-13T10:37:44;4.3;;;1.4;;
76548;SDS011;65391;52.068;4.542;2023-03-13T10:40:12;4.3;;;1.4;;
76548;SDS011;65391;52.068;4.542;2023-03-13T10:42:34;4.3;;;1.4;;
76548;SDS011;65391;52.068;4.542;2023-03-13T10:44:59;4.3;;;1.4;;
76548;SDS011;65391;52.068;4.542;2023-03-13T10:47:24;10;;;2.1;;
76548;SDS011;65391;52.068;4.542;2023-03-13T10:49:50;10;;;2.1;;
76548;SDS011;65391;52.068;4.542;2023-03-13T10:52:28;10;;;2.1;;
76548;SDS011;65391;52.068;4.542;2023-03-13T10:54:39;10;;;2.1;;
76548;SDS011;65391;52.068;4.542;2023-03-13T10:57:09;4.6;;;;;
76548;SDS011;65391;52.068;4.542;2023-03-13T10:59:29;4.6;;;1.8;;
76548;SDS011;65391;52.068;4.542;2023-03-13T11:01:57;4.6;;;1.8;;
76548;SDS011;65391;52.068;4.542;2023-03-13T11:04:24;4.6;;;1.8;;
76548;SDS011;65391;52.068;4.542;2023-03-13T11:06:48;4.6;;;1.8;;
76548;SDS011;65391;52.068;4.542;2023-03-13T11:09:10;9.8;;;2.5;;
76548;SDS011;65391;52.068;4.542;2023-03-13T11:11:42;9.8;;;2.5;;
76548;SDS011;65391;52.068;4.542;2023-03-13T11:14:07;9.8;;;2.5;;
76548;SDS011;65391;52.068;4.542;2023-03-13T11:16:27;9.8;;;2.5;;
76548;SDS011;65391;52.068;4.542;2023-03-13T11:18:57;13.6;;;2.3;;
76548;SDS011;65391;52.068;4.542;2023-03-13T11:21:17;13.6;;;2.3;;
76548;SDS011;65391;52.068;4.542;2023-03-13T11:23:39;13.6;;;2.3;;
76548;SDS011;65391;52.068;4.542;2023-03-13T11:26:07;13.6;;;2.3;;
76548;SDS011;65391;52.068;4.542;2023-03-13T11:28:38;12.2;;;2.6;;
76548;SDS011;65391;52.068;4.542;2023-03-13T11:30:59;12.2;;;2.6;;
76548;SDS011;65391;52.068;4.542;2023-03-13T11:33:26;12.2;;;2.6;;
76548;SDS011;65391;52.068;4.542;2023-03-13T11:35:45;12.2;;;2.6;;
76548;SDS011;65391;52.068;4.542;2023-03-13T11:38:12;9.7;;;2.3;;
76548;SDS011;65391;52.068;4.542;2023-03-13T11:40:35;9.7;;;2.3;;
76548;SDS011;65391;52.068;4.542;2023-03-13T11:43:06;9.7;;;2.3;;
76548;SDS011;65391;52.068;4.542;2023-03-13T11:45:34;9.7;;;2.3;;
76548;SDS011;65391;52.068;4.542;2023-03-13T11:47:52;12.2;;;2.9;;
76548;SDS011;65391;52.068;4.542;2023-03-13T11:50:17;12.2;;;2.9;;
76548;SDS011;65391;52.068;4.542;2023-03-13T11:52:44;12.2;;;2.9;;
76548;SDS011;65391;52.068;4.542;2023-03-13T11:55:18;12.2;;;2.9;;
76548;SDS011;65391;52.068;4.542;2023-03-13T11:57:29;10.2;;;2.8;;
76548;SDS011;65391;52.068;4.542;2023-03-13T12:00:18;10.2;;;2.8;;
76548;SDS011;65391;52.068;4.542;2023-03-13T12:02:22;10.2;;;2.8;;
76548;SDS011;65391;52.068;4.542;2023-03-13T12:04:44;10.2;;;2.8;;
76548;SDS011;65391;52.068;4.542;2023-03-13T12:07:12;10.6;;;2.5;;
76548;SDS011;65391;52.068;4.542;2023-03-13T12:09:36;10.6;;;2.5;;
76548;SDS011;65391;52.068;4.542;2023-03-13T12:12:00;10.6;;;2.5;;
76548;SDS011;65391;52.068;4.542;2023-03-13T12:14:25;10.6;;;2.5;;
76548;SDS011;65391;52.068;4.542;2023-03-13T12:16:50;10.6;;;2.5;;
76548;SDS011;65391;52.068;4.542;2023-03-13T12:19:16;17.7;;;2.9;;
76548;SDS011;65391;52.068;4.542;2023-03-13T12:21:41;17.7;;;2.9;;
76548;SDS011;65391;52.068;4.542;2023-03-13T12:24:06;17.7;;;2.9;;
76548;SDS011;65391;52.068;4.542;2023-03-13T12:26:33;17.7;;;2.9;;
76548;SDS011;65391;52.068;4.542;2023-03-13T12:28:59;13.5;;;2.8;;
76548;SDS011;65391;52.068;4.542;2023-03-13T12:31:21;13.5;;;2.8;;
76548;SDS011;65391;52.068;4.542;2023-03-13T12:33:46;13.5;;;2.8;;
76548;SDS011;65391;52.068;4.542;2023-03-13T12:36:12;13.5;;;2.8;;
76548;SDS011;65391;52.068;4.542;2023-03-13T12:38:36;12.8;;;2.8;;
76548;SDS011;65391;52.068;4.542;2023-03-13T12:41:03;12.8;;;2.8;;
76548;SDS011;65391;52.068;4.542;2023-03-13T12:43:25;12.8;;;2.8;;
76548;SDS011;65391;52.068;4.542;2023-03-13T12:45:59;12.8;;;2.8;;
76548;SDS011;65391;52.068;4.542;2023-03-13T12:48:34;13.9;;;3.3;;
76548;SDS011;65391;52.068;4.542;2023-03-13T12:50:43;13.9;;;3.3;;
76548;SDS011;65391;52.068;4.542;2023-03-13T12:53:12;13.9;;;3.3;;
76548;SDS011;65391;52.068;4.542;2023-03-13T12:55:36;13.9;;;3.3;;
76548;SDS011;65391;52.068;4.542;2023-03-13T12:58:28;15.8;;;3.3;;
76548;SDS011;65391;52.068;4.542;2023-03-13T13:00:20;15.8;;;3.3;;
76548;SDS011;65391;52.068;4.542;2023-03-13T13:02:44;15.8;;;3.3;;
76548;SDS011;65391;52.068;4.542;2023-03-13T13:05:16;15.8;;;3.3;;
76548;SDS011;65391;52.068;4.542;2023-03-13T13:07:34;13.1;;;2.6;;
76548;SDS011;65391;52.068;4.542;2023-03-13T13:10:03;13.1;;;2.6;;
76548;SDS011;65391;52.068;4.542;2023-03-13T13:12:24;13.1;;;2.6;;
76548;SDS011;65391;52.068;4.542;2023-03-13T13:15:00;13.1;;;2.6;;
76548;SDS011;65391;52.068;4.542;2023-03-13T13:17:15;13.3;;;3;;
76548;SDS011;65391;52.068;4.542;2023-03-13T13:19:43;13.3;;;3;;
76548;SDS011;65391;52.068;4.542;2023-03-13T13:24:48;13.3;;;3;;
76548;SDS011;65391;52.068;4.542;2023-03-13T13:26:54;13.3;;;3;;
76548;SDS011;65391;52.068;4.542;2023-03-13T13:30:00;14.2;;;3.3;;
76548;SDS011;65391;52.068;4.542;2023-03-13T13:31:49;14.2;;;3.3;;
76548;SDS011;65391;52.068;4.542;2023-03-13T13:34:52;14.2;;;3.3;;
76548;SDS011;65391;52.068;4.542;2023-03-13T13:36:41;14.2;;;3.3;;
76548;SDS011;65391;52.068;4.542;2023-03-13T13:38:59;11.7;;;3.8;;
76548;SDS011;65391;52.068;4.542;2023-03-13T13:41:33;11.7;;;3.8;;
76548;SDS011;65391;52.068;4.542;2023-03-13T13:43:50;11.7;;;3.8;;
76548;SDS011;65391;52.068;4.542;2023-03-13T13:46:21;11.7;;;3.8;;
76548;SDS011;65391;52.068;4.542;2023-03-13T13:48:39;16.1;;;3;;
76548;SDS011;65391;52.068;4.542;2023-03-13T13:51:36;16.1;;;3;;
76548;SDS011;65391;52.068;4.542;2023-03-13T13:53:30;16.1;;;3;;
76548;SDS011;65391;52.068;4.542;2023-03-13T13:55:54;16.1;;;3;;
76548;SDS011;65391;52.068;4.542;2023-03-13T13:58:20;13.6;;;3.3;;
76548;SDS011;65391;52.068;4.542;2023-03-13T14:00:45;13.6;;;3.3;;
76548;SDS011;65391;52.068;4.542;2023-03-13T14:03:17;13.6;;;3.3;;
76548;SDS011;65391;52.068;4.542;2023-03-13T14:05:34;13.6;;;3.3;;
76548;SDS011;65391;52.068;4.542;2023-03-13T14:07:59;15.7;;;4.1;;
76548;SDS011;65391;52.068;4.542;2023-03-13T14:10:28;15.7;;;4.1;;
76548;SDS011;65391;52.068;4.542;2023-03-13T14:12:51;15.7;;;4.1;;
76548;SDS011;65391;52.068;4.542;2023-03-13T14:15:15;15.7;;;4.1;;
76548;SDS011;65391;52.068;4.542;2023-03-13T14:17:40;15.1;;;3.2;;
76548;SDS011;65391;52.068;4.542;2023-03-13T14:20:14;15.1;;;3.2;;
76548;SDS011;65391;52.068;4.542;2023-03-13T14:22:43;15.1;;;3.2;;
76548;SDS011;65391;52.068;4.542;2023-03-13T14:24:56;15.1;;;3.2;;
76548;SDS011;65391;52.068;4.542;2023-03-13T14:27:19;15.9;;;3.7;;
76548;SDS011;65391;52.068;4.542;2023-03-13T14:29:58;15.9;;;3.7;;
76548;SDS011;65391;52.068;4.542;2023-03-13T14:32:09;15.9;;;3.7;;
76548;SDS011;65391;52.068;4.542;2023-03-13T14:34:35;15.9;;;3.7;;
76548;SDS011;65391;52.068;4.542;2023-03-13T14:37:00;15.9;;;3.7;;
76548;SDS011;65391;52.068;4.542;2023-03-13T14:39:35;19.6;;;3.7;;
76548;SDS011;65391;52.068;4.542;2023-03-13T14:41:49;19.6;;;3.7;;
76548;SDS011;65391;52.068;4.542;2023-03-13T14:44:19;19.6;;;3.7;;
76548;SDS011;65391;52.068;4.542;2023-03-13T14:46:40;19.6;;;3.7;;
76548;SDS011;65391;52.068;4.542;2023-03-13T14:49:06;14.5;;;3.7;;
76548;SDS011;65391;52.068;4.542;2023-03-13T14:51:29;14.5;;;3.7;;
76548;SDS011;65391;52.068;4.542;2023-03-13T14:53:55;14.5;;;3.7;;
76548;SDS011;65391;52.068;4.542;2023-03-13T14:56:19;14.5;;;3.7;;
76548;SDS011;65391;52.068;4.542;2023-03-13T14:58:44;20;;;3.9;;
76548;SDS011;65391;52.068;4.542;2023-03-13T15:01:20;20;;;3.9;;